createdAt,value
2022-10-23T00:08:52.003Z,89.21
2022-10-23T00:12:22.489Z,89.06
2022-10-23T00:15:16.889Z,89.04
2022-10-23T00:18:16.705Z,89.20
2022-10-23T00:21:05.742Z,89.21
2022-10-23T00:23:43.469Z,89.67
2022-10-23T00:26:16.109Z,89.72
2022-10-23T00:28:54.103Z,89.95
2022-10-23T00:31:29.897Z,90.01
2022-10-23T00:34:47.953Z,89.96
2022-10-23T00:41:37.916Z,90.10
2022-10-23T00:51:10.169Z,90.19
2022-10-23T00:58:05.460Z,90.44
2022-10-23T01:01:27.447Z,90.50
2022-10-23T01:04:00.673Z,90.83
2022-10-23T01:06:36.621Z,90.55
2022-10-23T01:09:38.400Z,90.77
2022-10-23T01:12:19.724Z,90.54
2022-10-23T01:15:17.966Z,90.76
2022-10-23T01:19:07.965Z,90.80
2022-10-23T01:25:20.457Z,90.67
2022-10-23T01:29:04.036Z,90.70
2022-10-23T01:32:15.213Z,90.84
2022-10-23T01:42:55.221Z,90.99
2022-10-23T01:46:42.789Z,91.22
2022-10-23T01:49:38.663Z,91.54
2022-10-23T01:52:57.877Z,91.48
2022-10-23T01:55:53.497Z,91.30
2022-10-23T02:02:21.985Z,91.16
2022-10-23T02:05:10.273Z,91.42
2022-10-23T02:07:45.933Z,91.40
2022-10-23T02:10:39.927Z,91.39
2022-10-23T02:13:56.380Z,91.52
2022-10-23T02:17:02.265Z,91.48
2022-10-23T02:19:56.761Z,91.41
2022-10-23T02:22:29.971Z,91.27
2022-10-23T02:25:48.101Z,91.42
2022-10-23T02:28:42.793Z,91.59
2022-10-23T02:31:23.871Z,91.58
2022-10-23T02:34:57.245Z,91.81
2022-10-23T02:38:42.356Z,91.72
2022-10-23T02:49:44.363Z,91.63
2022-10-23T02:53:03.286Z,91.89
2022-10-23T02:56:34.525Z,91.84
2022-10-23T03:04:13.575Z,92.22
2022-10-23T03:06:41.693Z,91.92
2022-10-23T03:09:39.097Z,91.97
2022-10-23T03:12:35.736Z,92.35
2022-10-23T03:15:14.868Z,92.09
2022-10-23T03:20:56.149Z,92.20
2022-10-23T03:23:24.092Z,91.75
2022-10-23T03:25:59.613Z,91.08
2022-10-23T03:28:45.099Z,91.25
2022-10-23T03:31:19.188Z,91.34
2022-10-23T03:34:19.456Z,91.74
2022-10-23T03:36:53.710Z,91.83
2022-10-23T03:40:21.026Z,92.18
2022-10-23T03:43:01.265Z,92.62
2022-10-23T03:46:13.063Z,92.77
2022-10-23T03:49:19.663Z,92.70
2022-10-23T03:55:00.469Z,93.12
2022-10-23T03:57:46.575Z,93.40
2022-10-23T04:00:22.140Z,93.38
2022-10-23T04:03:12.999Z,93.97
2022-10-23T04:08:49.447Z,93.70
2022-10-23T04:11:17.969Z,93.45
2022-10-23T04:14:03.842Z,93.05
2022-10-23T04:16:31.348Z,92.51
2022-10-23T04:18:59.672Z,92.20
2022-10-23T04:21:26.325Z,92.21
2022-10-23T04:24:06.234Z,92.59
2022-10-23T04:26:38.449Z,92.51
2022-10-23T04:29:37.894Z,92.80
2022-10-23T04:32:06.749Z,92.38
2022-10-23T04:34:35.648Z,92.71
2022-10-23T04:37:10.407Z,92.45
2022-10-23T04:39:52.599Z,92.57
2022-10-23T04:43:06.641Z,92.00
2022-10-23T04:45:51.533Z,92.36
2022-10-23T04:48:38.431Z,92.22
2022-10-23T04:52:22.214Z,92.46
2022-10-23T04:55:26.295Z,92.18
2022-10-23T04:58:17.376Z,92.44
2022-10-23T05:01:18.046Z,92.70
2022-10-23T05:07:23.475Z,92.68
2022-10-23T05:10:47.574Z,92.64
2022-10-23T05:13:21.414Z,92.77
2022-10-23T05:16:50.344Z,93.43
2022-10-23T05:19:45.395Z,93.56
2022-10-23T05:22:49.342Z,93.79
2022-10-23T05:25:17.463Z,94.00
2022-10-23T05:28:00.567Z,94.03
2022-10-23T05:30:33.357Z,94.15
2022-10-23T05:33:03.571Z,94.48
2022-10-23T05:35:36.519Z,94.46
2022-10-23T05:38:03.233Z,94.74
2022-10-23T05:40:29.835Z,94.97
2022-10-23T05:43:01.800Z,94.96
2022-10-23T05:45:49.766Z,95.12
2022-10-23T05:48:37.233Z,94.84
2022-10-23T05:51:27.217Z,94.88
2022-10-23T05:54:09.713Z,94.87
2022-10-23T05:56:55.780Z,94.51
2022-10-23T05:59:30.222Z,93.98
2022-10-23T06:02:26.401Z,94.12
2022-10-23T06:04:59.656Z,94.22
2022-10-23T06:07:33.640Z,94.65
2022-10-23T06:10:05.183Z,94.80
2022-10-23T06:13:01.771Z,94.63
2022-10-23T06:15:28.870Z,94.81
2022-10-23T06:18:17.048Z,94.97
2022-10-23T06:20:55.283Z,94.71
2022-10-23T06:23:48.750Z,94.83
2022-10-23T06:27:00.059Z,94.91
2022-10-23T06:30:05.878Z,94.57
2022-10-23T06:32:43.673Z,94.36
2022-10-23T06:35:12.148Z,94.13
2022-10-23T06:37:38.880Z,94.18
2022-10-23T06:40:13.970Z,93.91
2022-10-23T06:43:01.130Z,94.36
2022-10-23T06:45:46.621Z,94.21
2022-10-23T06:48:13.272Z,94.47
2022-10-23T06:50:56.415Z,94.10
2022-10-23T06:57:12.227Z,94.18
2022-10-23T06:59:43.383Z,94.00
2022-10-23T07:02:10.712Z,93.96
2022-10-23T07:04:46.277Z,93.84
2022-10-23T07:07:22.486Z,94.30
2022-10-23T07:09:49.543Z,94.40
2022-10-23T07:12:29.482Z,94.32
2022-10-23T07:15:27.755Z,94.16
2022-10-23T07:17:56.955Z,94.18
2022-10-23T07:20:49.293Z,94.29
2022-10-23T07:23:16.498Z,94.42
2022-10-23T07:25:51.875Z,94.77
2022-10-23T07:28:35.251Z,94.68
2022-10-23T07:31:27.963Z,94.48
2022-10-23T07:34:46.444Z,94.80
2022-10-23T07:37:29.792Z,94.62
2022-10-23T07:40:35.275Z,94.69
2022-10-23T07:43:03.251Z,94.88
2022-10-23T07:45:37.543Z,94.66
2022-10-23T07:48:33.998Z,94.91
2022-10-23T07:51:08.219Z,94.90
2022-10-23T07:54:40.437Z,94.66
2022-10-23T07:57:21.378Z,94.80
2022-10-23T08:00:25.779Z,94.93
2022-10-23T08:03:00.437Z,95.13
2022-10-23T08:05:28.765Z,95.67
2022-10-23T08:08:01.699Z,95.45
2022-10-23T08:10:29.944Z,95.51
2022-10-23T08:12:57.589Z,95.60
2022-10-23T08:15:48.231Z,95.27
2022-10-23T08:18:35.136Z,95.14
2022-10-23T08:21:03.320Z,95.11
2022-10-23T08:23:33.002Z,94.92
2022-10-23T08:26:03.044Z,94.78
2022-10-23T08:28:31.994Z,94.16
2022-10-23T08:31:06.900Z,94.23
2022-10-23T08:33:33.408Z,94.28
2022-10-23T08:35:59.866Z,93.94
2022-10-23T08:38:32.123Z,93.73
2022-10-23T08:41:01.425Z,93.81
2022-10-23T08:43:41.973Z,93.16
2022-10-23T08:46:33.134Z,93.45
2022-10-23T08:49:53.179Z,92.99
2022-10-23T08:52:26.852Z,93.23
2022-10-23T08:55:16.820Z,93.09
2022-10-23T08:57:50.008Z,92.89
2022-10-23T09:00:17.536Z,92.64
2022-10-23T09:02:49.730Z,92.05
2022-10-23T09:05:32.829Z,92.08
2022-10-23T09:08:08.666Z,91.86
2022-10-23T09:10:55.471Z,91.40
2022-10-23T09:13:54.924Z,91.16
2022-10-23T09:16:53.371Z,90.88
2022-10-23T09:19:26.225Z,90.19
2022-10-23T09:21:54.734Z,90.26
2022-10-23T09:24:24.058Z,89.54
2022-10-23T09:26:52.630Z,89.36
2022-10-23T09:29:35.656Z,89.46
2022-10-23T09:32:05.603Z,89.12
2022-10-23T09:34:35.212Z,89.08
2022-10-23T09:37:05.021Z,88.62
2022-10-23T09:39:34.583Z,88.15
2022-10-23T09:42:09.373Z,88.07
2022-10-23T09:44:39.325Z,87.79
2022-10-23T09:47:05.688Z,87.50
2022-10-23T09:49:34.394Z,87.36
2022-10-23T09:52:11.494Z,87.41
2022-10-23T09:54:44.570Z,87.28
2022-10-23T09:57:19.759Z,86.94
2022-10-23T09:59:54.645Z,86.94
2022-10-23T10:02:31.691Z,86.85
2022-10-23T10:05:26.087Z,86.82
2022-10-23T10:08:24.465Z,86.99
2022-10-23T10:10:58.384Z,86.78
2022-10-23T10:13:33.819Z,86.75
2022-10-23T10:16:06.333Z,86.66
2022-10-23T10:18:41.344Z,86.51
2022-10-23T10:21:25.981Z,86.54
2022-10-23T10:24:12.522Z,86.67
2022-10-23T10:26:51.380Z,86.91
2022-10-23T10:29:48.146Z,87.11
2022-10-23T10:32:36.901Z,87.18
2022-10-23T10:35:35.009Z,87.48
2022-10-23T10:38:21.937Z,87.65
2022-10-23T10:41:17.907Z,87.38
2022-10-23T10:43:58.058Z,87.35
2022-10-23T10:46:28.617Z,87.01
2022-10-23T10:49:10.680Z,86.89
2022-10-23T10:51:45.987Z,86.73
2022-10-23T10:54:18.497Z,86.70
2022-10-23T10:56:45.839Z,86.46
2022-10-23T10:59:18.668Z,86.13
2022-10-23T11:01:50.773Z,86.00
2022-10-23T11:04:28.104Z,85.93
2022-10-23T11:06:55.444Z,86.08
2022-10-23T11:09:27.301Z,86.11
2022-10-23T11:11:53.829Z,85.98
2022-10-23T11:14:28.268Z,85.70
2022-10-23T11:17:08.758Z,85.14
2022-10-23T11:20:15.380Z,84.95
2022-10-23T11:22:48.184Z,85.03
2022-10-23T11:25:38.715Z,85.24
2022-10-23T11:28:24.888Z,85.16
2022-10-23T11:31:11.872Z,85.08
2022-10-23T11:33:55.134Z,84.99
2022-10-23T11:36:44.453Z,84.63
2022-10-23T11:39:17.263Z,84.44
2022-10-23T11:42:11.748Z,84.62
2022-10-23T11:44:48.216Z,84.45
2022-10-23T11:47:44.001Z,84.31
2022-10-23T11:50:10.297Z,84.17
2022-10-23T11:52:45.616Z,83.88
2022-10-23T11:55:20.845Z,83.31
2022-10-23T11:58:18.808Z,83.65
2022-10-23T12:01:24.204Z,83.57
2022-10-23T12:04:14.118Z,83.74
2022-10-23T12:06:57.884Z,83.25
2022-10-23T12:13:39.488Z,83.31
2022-10-23T12:16:09.483Z,83.51
2022-10-23T12:18:59.676Z,83.18
2022-10-23T12:21:41.455Z,83.13
2022-10-23T12:24:26.586Z,83.35
2022-10-23T12:27:06.526Z,83.20
2022-10-23T12:30:01.209Z,83.45
2022-10-23T12:33:11.424Z,83.49
2022-10-23T12:35:53.935Z,82.77
2022-10-23T12:38:26.984Z,82.53
2022-10-23T12:41:01.203Z,82.65
2022-10-23T12:43:30.686Z,83.00
2022-10-23T12:46:20.965Z,83.71
2022-10-23T12:48:52.681Z,83.88
2022-10-23T12:51:29.612Z,84.47
2022-10-23T12:54:02.893Z,84.14
2022-10-23T12:56:35.351Z,83.97
2022-10-23T12:59:14.073Z,83.55
2022-10-23T13:01:52.440Z,83.09
2022-10-23T13:04:44.001Z,82.16
2022-10-23T13:07:10.643Z,81.98
2022-10-23T13:09:58.725Z,82.32
2022-10-23T13:12:39.672Z,82.48
2022-10-23T13:15:37.317Z,81.92
2022-10-23T13:18:05.091Z,82.01
2022-10-23T13:20:39.001Z,81.86
2022-10-23T13:23:18.982Z,81.63
2022-10-23T13:25:55.920Z,81.20
2022-10-23T13:28:23.708Z,81.30
2022-10-23T13:31:33.076Z,81.26
2022-10-23T13:33:59.477Z,80.93
2022-10-23T13:36:28.212Z,80.68
2022-10-23T13:39:10.452Z,79.89
2022-10-23T13:41:40.149Z,80.01
2022-10-23T13:44:07.076Z,79.28
2022-10-23T13:46:33.568Z,78.96
2022-10-23T13:49:01.335Z,79.50
2022-10-23T13:51:29.483Z,78.91
2022-10-23T13:53:57.483Z,79.33
2022-10-23T13:56:25.446Z,80.43
2022-10-23T13:58:51.882Z,80.89
2022-10-23T14:01:27.049Z,81.48
2022-10-23T14:04:19.383Z,82.11
2022-10-23T14:06:45.850Z,82.28
2022-10-23T14:09:17.084Z,82.78
2022-10-23T14:11:50.452Z,82.91
2022-10-23T14:14:26.473Z,83.09
2022-10-23T14:16:53.142Z,83.36
2022-10-23T14:22:04.922Z,84.19
2022-10-23T14:24:33.707Z,84.30
2022-10-23T14:27:00.166Z,84.49
2022-10-23T14:29:26.553Z,84.79
2022-10-23T14:31:53.042Z,85.06
2022-10-23T14:34:19.661Z,85.49
2022-10-23T14:36:49.816Z,85.40
2022-10-23T14:39:18.318Z,85.52
2022-10-23T14:45:02.969Z,85.80
2022-10-23T14:47:29.687Z,85.79
2022-10-23T14:50:07.390Z,86.30
2022-10-23T14:52:33.823Z,86.19
2022-10-23T14:55:01.615Z,86.66
2022-10-23T14:57:28.230Z,86.82
2022-10-23T15:00:24.227Z,86.98
2022-10-23T15:03:17.904Z,87.19
2022-10-23T15:05:44.939Z,87.15
2022-10-23T15:08:47.737Z,87.42
2022-10-23T15:11:14.273Z,87.19
2022-10-23T15:13:40.672Z,87.06
2022-10-23T15:16:09.664Z,87.43
2022-10-23T15:21:18.455Z,88.65
2022-10-23T15:23:49.778Z,88.49
2022-10-23T15:26:31.762Z,88.57
2022-10-23T15:29:07.143Z,88.73
2022-10-23T15:31:42.325Z,88.80
2022-10-23T15:34:22.533Z,88.75
2022-10-23T15:36:49.415Z,88.96
2022-10-23T15:39:35.928Z,89.02
2022-10-23T15:42:16.442Z,88.94
2022-10-23T15:45:01.552Z,88.94
2022-10-23T15:47:28.214Z,88.94
2022-10-23T15:49:54.684Z,89.35
2022-10-23T15:52:21.090Z,89.50
2022-10-23T15:54:49.877Z,89.39
2022-10-23T15:57:16.368Z,89.40
2022-10-23T15:59:42.784Z,89.53
2022-10-23T16:02:41.108Z,89.59
2022-10-23T16:05:07.877Z,89.45
2022-10-23T16:07:34.282Z,89.49
2022-10-23T16:10:00.832Z,89.75
2022-10-23T16:12:27.383Z,90.02
2022-10-23T16:14:53.743Z,89.99
2022-10-23T16:17:20.313Z,90.25
2022-10-23T16:19:46.691Z,90.04
2022-10-23T16:22:16.095Z,90.17
2022-10-23T16:24:50.251Z,90.14
2022-10-23T16:27:17.152Z,90.10
2022-10-23T16:29:43.552Z,90.08
2022-10-23T16:32:10.000Z,90.12
2022-10-23T16:34:36.393Z,89.57
2022-10-23T16:37:02.967Z,89.56
2022-10-23T16:39:37.805Z,89.63
2022-10-23T16:45:29.213Z,89.55
2022-10-23T16:47:55.639Z,89.19
2022-10-23T16:50:22.971Z,89.46
2022-10-23T16:52:52.013Z,89.09
2022-10-23T16:55:19.827Z,88.84
2022-10-23T16:57:46.310Z,88.61
2022-10-23T17:00:12.983Z,88.55
2022-10-23T17:02:39.447Z,88.72
2022-10-23T17:05:07.383Z,88.63
2022-10-23T17:07:34.086Z,88.57
2022-10-23T17:10:00.592Z,88.49
2022-10-23T17:12:27.058Z,88.30
2022-10-23T17:14:59.528Z,87.72
2022-10-23T17:17:27.856Z,87.36
2022-10-23T17:19:54.253Z,87.16
2022-10-23T17:25:23.396Z,87.47
2022-10-23T17:27:53.030Z,87.91
2022-10-23T17:30:19.564Z,87.93
2022-10-23T17:33:06.672Z,88.04
2022-10-23T17:35:39.658Z,88.43
2022-10-23T17:38:11.176Z,88.80
2022-10-23T17:40:41.525Z,89.16
2022-10-23T17:43:20.754Z,89.40
2022-10-23T17:45:47.227Z,90.07
2022-10-23T17:48:14.614Z,90.33
2022-10-23T17:50:41.332Z,90.92
2022-10-23T17:53:16.202Z,91.25
2022-10-23T17:55:51.011Z,92.12
2022-10-23T17:58:25.375Z,92.87
2022-10-23T18:00:54.912Z,93.27
2022-10-23T18:03:28.854Z,93.97
2022-10-23T18:05:55.662Z,94.36
2022-10-23T18:08:39.465Z,95.01
2022-10-23T18:11:52.312Z,95.45
2022-10-23T18:14:20.161Z,95.76
2022-10-23T18:16:50.198Z,95.99
2022-10-23T18:19:23.455Z,96.41
2022-10-23T18:21:59.761Z,96.82
2022-10-23T18:24:33.896Z,96.89
2022-10-23T18:27:13.375Z,97.32
2022-10-23T18:29:43.225Z,97.72
2022-10-23T18:32:16.367Z,97.96
2022-10-23T18:34:43.239Z,98.24
2022-10-23T18:37:14.648Z,98.51
2022-10-23T18:40:09.013Z,98.59
2022-10-23T18:42:48.938Z,98.58
2022-10-23T18:45:24.304Z,98.97
2022-10-23T18:47:51.334Z,98.71
2022-10-23T18:50:41.285Z,98.93
2022-10-23T18:53:07.754Z,99.02
2022-10-23T18:58:05.694Z,99.40
2022-10-23T19:00:32.150Z,99.44
2022-10-23T19:03:08.833Z,99.40
2022-10-23T19:05:41.169Z,99.24
2022-10-23T19:08:12.432Z,99.41
2022-10-23T19:11:00.337Z,99.02
2022-10-23T19:13:27.155Z,99.24
2022-10-23T19:16:04.777Z,99.05
2022-10-23T19:18:38.631Z,98.63
2022-10-23T19:21:09.739Z,98.36
2022-10-23T19:23:37.465Z,98.01
2022-10-23T19:26:08.756Z,98.04
2022-10-23T19:31:26.425Z,97.41
2022-10-23T19:33:53.505Z,97.27
2022-10-23T19:36:40.554Z,97.30
2022-10-23T19:39:07.029Z,97.55
2022-10-23T19:42:01.545Z,97.55
2022-10-23T19:44:28.206Z,97.36
2022-10-23T19:46:55.065Z,97.36
2022-10-23T19:49:29.655Z,97.40
2022-10-23T19:52:34.846Z,97.37
2022-10-23T19:55:03.315Z,97.45
2022-10-23T19:57:37.457Z,97.78
2022-10-23T20:00:07.684Z,97.08
2022-10-23T20:05:32.540Z,96.76
2022-10-23T20:07:59.003Z,96.54
2022-10-23T20:10:25.796Z,96.08
2022-10-23T20:12:56.664Z,96.32
2022-10-23T20:15:38.166Z,95.62
2022-10-23T20:18:05.216Z,95.31
2022-10-23T20:20:34.323Z,95.10
2022-10-23T20:23:03.379Z,94.93
2022-10-23T20:25:29.787Z,94.51
2022-10-23T20:27:56.213Z,93.72
2022-10-23T20:30:25.169Z,93.77
2022-10-23T20:32:54.195Z,93.25
2022-10-23T20:35:20.636Z,92.85
2022-10-23T20:37:47.351Z,93.09
2022-10-23T20:40:13.796Z,93.02
2022-10-23T20:42:42.504Z,92.05
2022-10-23T20:45:10.262Z,91.58
2022-10-23T20:47:36.690Z,91.55
2022-10-23T20:50:03.284Z,91.39
2022-10-23T20:55:00.034Z,91.37
2022-10-23T20:57:26.475Z,91.93
2022-10-23T20:59:53.189Z,91.31
2022-10-23T21:02:21.640Z,91.15
2022-10-23T21:04:50.362Z,90.84
2022-10-23T21:07:21.453Z,90.39
2022-10-23T21:09:51.076Z,89.95
2022-10-23T21:12:21.666Z,90.33
2022-10-23T21:14:48.156Z,89.45
2022-10-23T21:17:19.221Z,89.08
2022-10-23T21:19:45.797Z,88.34
2022-10-23T21:22:16.546Z,87.62
2022-10-23T21:24:53.287Z,87.17
2022-10-23T21:27:24.319Z,86.50
2022-10-23T21:29:53.304Z,85.95
2022-10-23T21:32:20.730Z,85.65
2022-10-23T21:34:48.939Z,85.51
2022-10-23T21:37:16.047Z,85.08
2022-10-23T21:39:43.493Z,84.55
2022-10-23T21:42:11.514Z,84.15
2022-10-23T21:44:39.348Z,84.11
2022-10-23T21:47:06.055Z,84.18
2022-10-23T21:49:58.211Z,83.79
2022-10-23T21:52:24.727Z,83.24
2022-10-23T21:54:53.956Z,83.27
2022-10-23T21:57:20.512Z,82.80
2022-10-23T21:59:47.646Z,82.64
2022-10-23T22:02:14.252Z,82.18
2022-10-23T22:04:41.136Z,82.13
2022-10-23T22:07:07.781Z,82.46
2022-10-23T22:09:34.569Z,82.64
2022-10-23T22:12:03.317Z,82.18
2022-10-23T22:14:37.596Z,81.77
2022-10-23T22:17:09.684Z,81.75
2022-10-23T22:20:05.997Z,81.22
2022-10-23T22:23:31.220Z,80.69
2022-10-23T22:25:57.804Z,81.15
2022-10-23T22:28:26.370Z,80.67
2022-10-23T22:31:11.717Z,80.63
2022-10-23T22:33:49.294Z,80.54
2022-10-23T22:36:15.777Z,80.38
2022-10-23T22:39:52.729Z,79.63
2022-10-23T22:42:20.247Z,79.47
2022-10-23T22:44:56.841Z,79.35
2022-10-23T22:47:23.356Z,79.51
2022-10-23T22:50:47.239Z,78.98
2022-10-23T22:53:13.690Z,78.26
2022-10-23T22:58:56.081Z,78.02
2022-10-23T23:01:51.893Z,77.01
2022-10-23T23:07:32.680Z,77.12
2022-10-23T23:09:59.405Z,76.74
2022-10-23T23:12:25.828Z,76.86
2022-10-23T23:14:52.237Z,75.89
2022-10-23T23:17:18.882Z,75.82
2022-10-23T23:19:45.382Z,76.01
2022-10-23T23:25:44.057Z,75.53
2022-10-23T23:28:12.451Z,75.43
2022-10-23T23:30:40.085Z,75.05
2022-10-23T23:33:09.078Z,74.69
2022-10-23T23:35:42.611Z,74.45
2022-10-23T23:38:38.732Z,74.52
2022-10-23T23:45:13.908Z,73.80
2022-10-23T23:48:09.490Z,73.61
2022-10-23T23:51:05.742Z,73.31
2022-10-23T23:53:32.547Z,73.18
2022-10-23T23:56:08.411Z,72.80
2022-10-23T23:58:35.241Z,72.34
